createdAt,value
2019-02-23T00:01:08.570Z,2.93
2019-02-23T00:03:39.553Z,2.82
2019-02-23T00:06:06.894Z,2.87
2019-02-23T00:08:34.236Z,2.63
2019-02-23T00:11:01.593Z,2.52
2019-02-23T00:13:29.062Z,2.67
2019-02-23T00:15:56.413Z,2.63
2019-02-23T00:18:23.774Z,2.51
2019-02-23T00:20:51.115Z,2.56
2019-02-23T00:23:18.453Z,2.45
2019-02-23T00:25:46.221Z,2.46
2019-02-23T00:28:13.522Z,2.30
2019-02-23T00:30:40.887Z,2.34
2019-02-23T00:33:08.286Z,2.40
2019-02-23T00:35:35.613Z,2.36
2019-02-23T00:38:03.290Z,2.08
2019-02-23T00:40:30.733Z,2.00
2019-02-23T00:42:58.075Z,2.02
2019-02-23T00:45:25.409Z,2.21
2019-02-23T00:47:52.808Z,2.35
2019-02-23T00:50:20.129Z,2.49
2019-02-23T00:52:47.457Z,2.44
2019-02-23T00:55:14.853Z,2.22
2019-02-23T00:57:42.193Z,2.04
2019-02-23T01:00:11.033Z,2.28
2019-02-23T01:02:38.433Z,2.36
2019-02-23T01:05:05.893Z,2.49
2019-02-23T01:07:33.325Z,2.44
2019-02-23T01:10:00.818Z,2.57
2019-02-23T01:12:28.197Z,2.58
2019-02-23T01:14:55.522Z,2.42
2019-02-23T01:17:22.881Z,2.46
2019-02-23T01:19:50.210Z,2.44
2019-02-23T01:22:17.573Z,2.43
2019-02-23T01:24:45.380Z,2.40
2019-02-23T01:27:12.697Z,2.33
2019-02-23T01:29:40.060Z,2.29
2019-02-23T01:32:08.102Z,2.39
2019-02-23T01:34:35.431Z,2.37
2019-02-23T01:37:02.739Z,2.34
2019-02-23T01:39:30.813Z,2.20
2019-02-23T01:41:58.148Z,2.30
2019-02-23T01:44:25.507Z,2.27
2019-02-23T01:46:52.824Z,2.34
2019-02-23T01:49:20.647Z,2.50
2019-02-23T01:51:47.969Z,2.49
2019-02-23T01:54:15.328Z,2.46
2019-02-23T01:56:42.655Z,2.39
2019-02-23T01:59:09.960Z,2.39
2019-02-23T02:01:37.310Z,2.34
2019-02-23T02:04:04.716Z,2.34
2019-02-23T02:06:33.628Z,2.18
2019-02-23T02:09:01.230Z,2.24
2019-02-23T02:11:28.527Z,2.28
2019-02-23T02:13:55.886Z,2.23
2019-02-23T02:16:23.400Z,2.35
2019-02-23T02:18:50.761Z,2.22
2019-02-23T02:21:18.074Z,2.18
2019-02-23T02:23:45.436Z,2.13
2019-02-23T02:26:12.747Z,2.07
2019-02-23T02:28:40.073Z,2.09
2019-02-23T02:31:07.415Z,2.11
2019-02-23T02:33:57.162Z,1.87
2019-02-23T02:36:24.516Z,1.92
2019-02-23T02:38:51.849Z,2.01
2019-02-23T02:41:19.134Z,1.97
2019-02-23T02:43:46.513Z,1.97
2019-02-23T02:46:13.851Z,1.98
2019-02-23T02:48:41.181Z,1.94
2019-02-23T02:51:08.556Z,1.92
2019-02-23T02:53:35.842Z,1.91
2019-02-23T02:56:03.254Z,1.88
2019-02-23T02:58:30.621Z,1.86
2019-02-23T03:00:57.936Z,1.74
2019-02-23T03:03:25.260Z,1.76
2019-02-23T03:05:52.637Z,1.81
2019-02-23T03:08:19.937Z,1.83
2019-02-23T03:10:47.220Z,1.74
2019-02-23T03:13:14.594Z,1.69
2019-02-23T03:15:41.894Z,1.71
2019-02-23T03:18:09.189Z,1.80
2019-02-23T03:20:37.039Z,1.74
2019-02-23T03:23:04.596Z,1.74
2019-02-23T03:25:31.916Z,1.74
2019-02-23T03:27:59.281Z,1.71
2019-02-23T03:30:26.762Z,1.70
2019-02-23T03:32:54.460Z,1.81
2019-02-23T03:35:22.098Z,1.72
2019-02-23T03:37:49.703Z,1.74
2019-02-23T03:40:17.223Z,1.72
2019-02-23T03:42:44.791Z,1.69
2019-02-23T03:45:12.600Z,1.68
2019-02-23T03:47:40.220Z,1.78
2019-02-23T03:50:07.607Z,1.73
2019-02-23T03:52:37.028Z,1.71
2019-02-23T03:55:04.703Z,1.77
2019-02-23T03:57:32.064Z,1.76
2019-02-23T03:59:59.380Z,1.76
2019-02-23T04:02:26.700Z,1.82
2019-02-23T04:04:54.074Z,1.76
2019-02-23T04:07:21.389Z,1.67
2019-02-23T04:09:48.690Z,1.74
2019-02-23T04:12:16.060Z,1.72
2019-02-23T04:14:43.380Z,1.69
2019-02-23T04:17:10.705Z,1.67
2019-02-23T04:19:38.066Z,1.73
2019-02-23T04:22:05.357Z,1.68
2019-02-23T04:24:32.695Z,1.67
2019-02-23T04:27:00.041Z,1.61
2019-02-23T04:29:27.409Z,1.67
2019-02-23T04:31:54.747Z,1.65
2019-02-23T04:34:22.129Z,1.66
2019-02-23T04:36:49.434Z,1.68
2019-02-23T04:39:16.769Z,1.72
2019-02-23T04:41:44.131Z,1.67
2019-02-23T04:44:11.461Z,1.66
2019-02-23T04:46:39.200Z,1.62
2019-02-23T04:49:06.604Z,1.66
2019-02-23T04:51:34.378Z,1.61
2019-02-23T04:54:01.732Z,1.66
2019-02-23T04:56:29.044Z,1.62
2019-02-23T04:58:56.468Z,1.66
2019-02-23T05:01:23.780Z,1.59
2019-02-23T05:03:51.162Z,1.60
2019-02-23T05:06:18.483Z,1.54
2019-02-23T05:08:45.903Z,1.54
2019-02-23T05:11:13.268Z,1.60
2019-02-23T05:13:40.578Z,1.55
2019-02-23T05:16:07.894Z,1.64
2019-02-23T05:18:35.265Z,1.59
2019-02-23T05:21:02.581Z,1.56
2019-02-23T05:23:29.875Z,1.59
2019-02-23T05:25:57.275Z,1.56
2019-02-23T05:28:24.596Z,1.58
2019-02-23T05:30:51.892Z,1.60
2019-02-23T05:33:19.220Z,1.56
2019-02-23T05:35:46.535Z,1.50
2019-02-23T05:38:13.849Z,1.47
2019-02-23T05:40:41.181Z,1.45
2019-02-23T05:43:08.528Z,1.48
2019-02-23T05:45:35.824Z,1.57
2019-02-23T05:48:03.183Z,1.50
2019-02-23T05:50:30.531Z,1.50
2019-02-23T05:52:58.088Z,1.51
2019-02-23T05:55:25.459Z,1.52
2019-02-23T05:57:52.762Z,1.52
2019-02-23T06:00:20.076Z,1.45
2019-02-23T06:02:47.418Z,1.44
2019-02-23T06:05:14.752Z,1.44
2019-02-23T06:07:42.040Z,1.43
2019-02-23T06:10:10.083Z,1.34
2019-02-23T06:12:37.414Z,1.32
2019-02-23T06:15:06.970Z,1.33
2019-02-23T06:17:34.342Z,1.31
2019-02-23T06:20:01.642Z,1.32
2019-02-23T06:22:28.928Z,1.28
2019-02-23T06:24:56.290Z,1.28
2019-02-23T06:27:23.656Z,1.25
2019-02-23T06:29:50.938Z,1.32
2019-02-23T06:32:18.312Z,1.31
2019-02-23T06:34:45.624Z,1.35
2019-02-23T06:37:12.934Z,1.33
2019-02-23T06:39:40.284Z,1.44
2019-02-23T06:42:07.613Z,1.42
2019-02-23T06:44:34.931Z,1.49
2019-02-23T06:47:02.290Z,1.42
2019-02-23T06:49:29.663Z,1.39
2019-02-23T06:52:04.260Z,1.48
2019-02-23T06:54:27.712Z,1.53
2019-02-23T06:56:55.034Z,1.50
2019-02-23T06:59:22.364Z,1.59
2019-02-23T07:01:49.722Z,1.52
2019-02-23T07:04:17.533Z,1.49
2019-02-23T07:06:44.849Z,1.68
2019-02-23T07:09:12.195Z,1.59
2019-02-23T07:11:39.800Z,1.59
2019-02-23T07:14:07.122Z,1.64
2019-02-23T07:16:34.492Z,1.51
2019-02-23T07:19:01.830Z,1.49
2019-02-23T07:21:29.139Z,1.48
2019-02-23T07:23:56.499Z,1.58
2019-02-23T07:26:23.832Z,1.65
2019-02-23T07:28:51.168Z,1.53
2019-02-23T07:31:18.521Z,1.53
2019-02-23T07:33:45.813Z,1.43
2019-02-23T07:36:13.137Z,1.41
2019-02-23T07:38:40.502Z,1.36
2019-02-23T07:41:07.882Z,1.39
2019-02-23T07:43:35.184Z,1.50
2019-02-23T07:46:02.640Z,1.48
2019-02-23T07:48:29.970Z,1.46
2019-02-23T07:50:57.326Z,1.54
2019-02-23T07:53:24.690Z,1.46
2019-02-23T07:55:52.017Z,1.59
2019-02-23T07:58:19.346Z,1.56
2019-02-23T08:00:47.044Z,1.53
2019-02-23T08:03:14.526Z,1.52
2019-02-23T08:05:41.876Z,1.58
2019-02-23T08:08:09.286Z,1.61
2019-02-23T08:10:36.634Z,1.59
2019-02-23T08:13:04.923Z,1.62
2019-02-23T08:15:32.333Z,1.71
2019-02-23T08:17:59.648Z,1.67
2019-02-23T08:20:27.197Z,1.64
2019-02-23T08:22:54.622Z,1.72
2019-02-23T08:25:21.976Z,1.77
2019-02-23T08:27:49.357Z,1.68
2019-02-23T08:30:16.763Z,1.74
2019-02-23T08:32:44.073Z,1.63
2019-02-23T08:35:11.402Z,1.77
2019-02-23T08:37:39.038Z,1.80
2019-02-23T08:40:07.512Z,1.63
2019-02-23T08:42:35.116Z,1.59
2019-02-23T08:45:02.844Z,1.66
2019-02-23T08:47:30.442Z,1.60
2019-02-23T08:49:58.006Z,1.76
2019-02-23T08:52:25.407Z,1.76
2019-02-23T08:54:52.791Z,1.76
2019-02-23T08:57:20.148Z,1.67
2019-02-23T08:59:47.507Z,1.73
2019-02-23T09:02:14.847Z,1.72
2019-02-23T09:04:42.159Z,1.70
2019-02-23T09:07:09.549Z,1.67
2019-02-23T09:09:36.868Z,1.60
2019-02-23T09:12:04.186Z,1.66
2019-02-23T09:14:31.561Z,1.63
2019-02-23T09:16:59.002Z,1.76
2019-02-23T09:19:26.349Z,1.78
2019-02-23T09:21:53.729Z,1.88
2019-02-23T09:24:21.055Z,1.88
2019-02-23T09:26:48.440Z,1.77
2019-02-23T09:29:15.854Z,1.80
2019-02-23T09:31:43.198Z,1.79
2019-02-23T09:34:10.554Z,1.62
2019-02-23T09:36:37.954Z,1.93
2019-02-23T09:39:05.498Z,1.86
2019-02-23T09:41:32.845Z,1.98
2019-02-23T09:44:00.231Z,2.08
2019-02-23T09:46:27.564Z,1.98
2019-02-23T09:48:56.414Z,2.18
2019-02-23T09:51:24.174Z,2.02
2019-02-23T09:53:52.125Z,2.11
2019-02-23T09:56:19.705Z,2.20
2019-02-23T09:58:47.487Z,2.22
2019-02-23T10:01:14.849Z,2.29
2019-02-23T10:03:42.297Z,2.40
2019-02-23T10:06:09.710Z,2.51
2019-02-23T10:08:37.064Z,2.40
2019-02-23T10:11:04.375Z,2.45
2019-02-23T10:13:31.793Z,2.62
2019-02-23T10:15:59.124Z,2.56
2019-02-23T10:18:26.481Z,2.70
2019-02-23T10:20:53.881Z,2.85
2019-02-23T10:23:22.366Z,3.04
2019-02-23T10:25:50.236Z,3.03
2019-02-23T10:28:17.627Z,3.02
2019-02-23T10:30:44.987Z,3.07
2019-02-23T10:33:12.356Z,3.19
2019-02-23T10:35:40.152Z,3.16
2019-02-23T10:38:07.514Z,3.06
2019-02-23T10:40:35.302Z,2.96
2019-02-23T10:43:02.841Z,2.99
2019-02-23T10:45:30.328Z,3.02
2019-02-23T10:47:57.759Z,3.21
2019-02-23T10:50:25.120Z,3.29
2019-02-23T10:52:52.618Z,3.40
2019-02-23T10:55:19.995Z,3.45
2019-02-23T10:57:47.452Z,3.53
2019-02-23T11:00:18.097Z,3.63
2019-02-23T11:02:45.752Z,3.58
2019-02-23T11:05:13.253Z,3.47
2019-02-23T11:07:40.599Z,3.57
2019-02-23T11:10:08.112Z,3.92
2019-02-23T11:12:35.527Z,3.75
2019-02-23T11:15:02.853Z,3.73
2019-02-23T11:17:30.174Z,3.77
2019-02-23T11:19:57.634Z,3.86
2019-02-23T11:22:25.075Z,3.88
2019-02-23T11:24:52.419Z,3.86
2019-02-23T11:27:19.894Z,3.88
2019-02-23T11:29:49.352Z,3.86
2019-02-23T11:32:16.790Z,4.13
2019-02-23T11:34:44.235Z,4.12
2019-02-23T11:37:11.634Z,4.18
2019-02-23T11:39:39.024Z,4.05
2019-02-23T11:42:06.435Z,4.30
2019-02-23T11:44:33.829Z,4.44
2019-02-23T11:47:01.218Z,4.27
2019-02-23T11:49:28.695Z,4.32
2019-02-23T11:51:56.155Z,4.28
2019-02-23T11:54:23.482Z,4.38
2019-02-23T11:56:50.913Z,4.27
2019-02-23T11:59:18.320Z,4.29
2019-02-23T12:01:45.718Z,4.09
2019-02-23T12:04:13.227Z,4.29
2019-02-23T12:06:40.756Z,4.26
2019-02-23T12:09:08.465Z,4.37
2019-02-23T12:11:36.228Z,4.39
2019-02-23T12:14:03.890Z,4.33
2019-02-23T12:16:31.322Z,4.54
2019-02-23T12:18:58.810Z,4.48
2019-02-23T12:21:26.275Z,4.60
2019-02-23T12:23:53.693Z,4.48
2019-02-23T12:26:21.165Z,4.51
2019-02-23T12:28:48.573Z,4.59
2019-02-23T12:31:16.151Z,4.56
2019-02-23T12:33:43.612Z,4.65
2019-02-23T12:36:11.062Z,4.45
2019-02-23T12:38:38.456Z,4.65
2019-02-23T12:41:06.326Z,4.67
2019-02-23T12:43:33.807Z,4.60
2019-02-23T12:46:01.478Z,4.62
2019-02-23T12:48:29.037Z,4.56
2019-02-23T12:50:56.711Z,4.64
2019-02-23T12:53:24.513Z,4.54
2019-02-23T12:55:52.073Z,4.83
2019-02-23T12:58:19.783Z,4.65
2019-02-23T13:00:47.749Z,4.63
2019-02-23T13:03:15.337Z,4.79
2019-02-23T13:05:43.089Z,4.91
2019-02-23T13:08:10.824Z,4.92
2019-02-23T13:10:38.743Z,4.98
2019-02-23T13:13:45.444Z,4.92
2019-02-23T13:16:37.629Z,5.10
2019-02-23T13:19:41.472Z,5.15
2019-02-23T13:23:13.404Z,5.24
2019-02-23T13:26:10.385Z,5.07
2019-02-23T13:29:11.120Z,5.12
2019-02-23T13:32:22.660Z,5.25
2019-02-23T13:35:05.946Z,5.44
2019-02-23T13:38:16.745Z,5.73
2019-02-23T13:41:08.033Z,5.62
2019-02-23T13:44:38.389Z,5.45
2019-02-23T13:47:32.001Z,5.52
2019-02-23T13:50:44.003Z,5.35
2019-02-23T13:53:51.716Z,5.68
2019-02-23T13:56:42.969Z,5.54
2019-02-23T13:59:32.213Z,5.66
2019-02-23T14:02:53.672Z,5.42
2019-02-23T14:05:38.822Z,5.43
2019-02-23T14:09:00.158Z,5.48
2019-02-23T14:12:17.401Z,5.67
2019-02-23T14:15:29.206Z,5.61
2019-02-23T14:18:16.759Z,5.68
2019-02-23T14:21:11.235Z,5.85
2019-02-23T14:24:34.956Z,5.98
2019-02-23T14:27:40.204Z,5.79
2019-02-23T14:31:01.112Z,5.94
2019-02-23T14:34:15.705Z,5.89
2019-02-23T14:37:27.041Z,5.81
2019-02-23T14:40:30.996Z,6.07
2019-02-23T14:43:33.821Z,5.94
2019-02-23T14:46:51.691Z,6.08
2019-02-23T14:50:08.616Z,5.91
2019-02-23T14:53:09.054Z,5.74
2019-02-23T14:56:08.432Z,6.47
2019-02-23T14:59:11.662Z,6.15
2019-02-23T15:02:07.556Z,5.91
2019-02-23T15:05:19.968Z,5.59
2019-02-23T15:08:28.075Z,5.68
2019-02-23T15:11:46.674Z,6.20
2019-02-23T15:14:55.031Z,6.66
2019-02-23T15:17:59.094Z,5.88
2019-02-23T15:21:13.497Z,5.56
2019-02-23T15:24:21.353Z,5.89
2019-02-23T15:27:17.510Z,5.69
2019-02-23T15:30:29.651Z,5.51
2019-02-23T15:33:19.767Z,5.64
2019-02-23T15:36:27.597Z,5.50
2019-02-23T15:39:23.197Z,5.02
2019-02-23T15:42:50.414Z,4.92
2019-02-23T15:45:55.099Z,4.46
2019-02-23T15:48:39.767Z,4.60
2019-02-23T15:51:07.687Z,4.40
2019-02-23T15:53:35.628Z,4.66
2019-02-23T15:56:04.371Z,4.54
2019-02-23T15:58:32.330Z,4.29
2019-02-23T16:01:00.227Z,4.89
2019-02-23T16:03:28.129Z,4.25
2019-02-23T16:05:56.064Z,4.34
2019-02-23T16:08:23.921Z,4.49
2019-02-23T16:10:51.691Z,4.69
2019-02-23T16:13:19.511Z,4.30
2019-02-23T16:15:47.510Z,4.03
2019-02-23T16:18:15.315Z,4.16
2019-02-23T16:20:43.450Z,4.40
2019-02-23T16:23:11.878Z,4.71
2019-02-23T16:25:39.697Z,3.73
2019-02-23T16:28:07.639Z,3.83
2019-02-23T16:30:35.563Z,3.64
2019-02-23T16:33:03.457Z,3.49
2019-02-23T16:35:31.398Z,3.57
2019-02-23T16:37:59.333Z,3.26
2019-02-23T16:40:27.258Z,3.45
2019-02-23T16:42:57.287Z,3.22
2019-02-23T16:45:25.217Z,3.30
2019-02-23T16:47:53.120Z,3.25
2019-02-23T16:50:21.074Z,3.13
2019-02-23T16:52:48.988Z,3.51
2019-02-23T16:55:17.031Z,3.20
2019-02-23T16:57:44.940Z,3.11
2019-02-23T17:00:12.832Z,2.99
2019-02-23T17:02:40.732Z,2.93
2019-02-23T17:05:08.943Z,2.87
2019-02-23T17:07:36.742Z,2.78
2019-02-23T17:10:05.042Z,2.95
2019-02-23T17:12:33.030Z,2.77
2019-02-23T17:15:00.938Z,2.62
2019-02-23T17:17:28.858Z,2.59
2019-02-23T17:19:56.842Z,2.69
2019-02-23T17:22:25.980Z,2.69
2019-02-23T17:24:53.751Z,2.47
2019-02-23T17:27:21.913Z,2.38
2019-02-23T17:29:49.894Z,2.33
2019-02-23T17:32:17.919Z,2.60
2019-02-23T17:34:46.035Z,2.77
2019-02-23T17:37:13.931Z,2.33
2019-02-23T17:39:41.871Z,2.31
2019-02-23T17:42:09.772Z,2.30
2019-02-23T17:44:37.927Z,2.21
2019-02-23T17:47:06.119Z,2.30
2019-02-23T17:49:34.175Z,2.23
2019-02-23T17:52:02.001Z,2.20
2019-02-23T17:54:30.113Z,2.05
2019-02-23T17:56:58.110Z,2.21
2019-02-23T17:59:26.170Z,1.99
2019-02-23T18:01:54.230Z,2.10
2019-02-23T18:04:22.224Z,1.97
2019-02-23T18:06:50.145Z,2.01
2019-02-23T18:09:18.108Z,1.82
2019-02-23T18:11:46.206Z,1.78
2019-02-23T18:14:15.289Z,1.73
2019-02-23T18:16:43.229Z,1.72
2019-02-23T18:19:11.630Z,1.70
2019-02-23T18:21:39.560Z,1.60
2019-02-23T18:24:08.152Z,1.61
2019-02-23T18:26:36.192Z,1.58
2019-02-23T18:29:04.080Z,1.68
2019-02-23T18:31:32.401Z,1.47
2019-02-23T18:34:00.652Z,1.52
2019-02-23T18:36:28.910Z,1.47
2019-02-23T18:38:56.870Z,1.36
2019-02-23T18:41:24.867Z,1.35
2019-02-23T18:43:53.300Z,1.21
2019-02-23T18:46:21.137Z,1.22
2019-02-23T18:48:49.259Z,1.27
2019-02-23T18:51:17.233Z,1.08
2019-02-23T18:53:44.994Z,1.11
2019-02-23T18:56:13.044Z,1.02
2019-02-23T18:58:40.858Z,1.01
2019-02-23T19:01:09.181Z,1.00
2019-02-23T19:03:37.055Z,1.21
2019-02-23T19:06:04.963Z,1.25
2019-02-23T19:08:34.104Z,1.29
2019-02-23T19:11:02.071Z,1.16
2019-02-23T19:13:29.898Z,0.96
2019-02-23T19:15:57.812Z,0.91
2019-02-23T19:18:27.329Z,0.87
2019-02-23T19:20:55.271Z,0.69
2019-02-23T19:23:23.220Z,0.79
2019-02-23T19:25:52.258Z,0.97
2019-02-23T19:28:20.215Z,0.80
2019-02-23T19:30:50.638Z,0.80
2019-02-23T19:33:18.629Z,0.71
2019-02-23T19:35:46.567Z,0.77
2019-02-23T19:38:14.505Z,0.60
2019-02-23T19:40:42.320Z,0.65
2019-02-23T19:43:10.272Z,0.56
2019-02-23T19:45:38.547Z,0.57
2019-02-23T19:48:06.540Z,0.51
2019-02-23T19:50:40.841Z,0.51
2019-02-23T19:53:10.785Z,0.43
2019-02-23T19:55:38.746Z,0.34
2019-02-23T19:58:06.956Z,0.39
2019-02-23T20:00:40.496Z,0.35
2019-02-23T20:03:09.829Z,0.38
2019-02-23T20:05:38.242Z,0.40
2019-02-23T20:08:06.466Z,0.28
2019-02-23T20:10:34.359Z,0.06
2019-02-23T20:13:03.773Z,0.06
2019-02-23T20:15:34.019Z,0.03
2019-02-23T20:18:02.264Z,-0.02
2019-02-23T20:20:30.330Z,-0.13
2019-02-23T20:22:58.444Z,-0.16
2019-02-23T20:25:26.387Z,-0.30
2019-02-23T20:27:54.535Z,-0.30
2019-02-23T20:30:22.757Z,-0.32
2019-02-23T20:32:50.690Z,-0.32
2019-02-23T20:35:18.642Z,-0.48
2019-02-23T20:37:48.314Z,-0.45
2019-02-23T20:40:17.561Z,-0.48
2019-02-23T20:42:45.754Z,-0.42
2019-02-23T20:45:13.764Z,-0.32
2019-02-23T20:47:41.700Z,-0.42
2019-02-23T20:50:09.813Z,-0.13
2019-02-23T20:52:38.255Z,-0.13
2019-02-23T20:55:06.409Z,-0.06
2019-02-23T20:57:34.329Z,-0.40
2019-02-23T21:00:03.690Z,-0.27
2019-02-23T21:02:32.853Z,-0.33
2019-02-23T21:05:00.885Z,-0.33
2019-02-23T21:07:28.863Z,-0.54
2019-02-23T21:09:56.815Z,-0.46
2019-02-23T21:12:24.835Z,-0.73
2019-02-23T21:14:52.837Z,-0.43
2019-02-23T21:17:20.800Z,-0.73
2019-02-23T21:19:48.737Z,-0.72
2019-02-23T21:22:16.646Z,-0.77
2019-02-23T21:24:44.476Z,-0.46
2019-02-23T21:27:13.244Z,-0.66
2019-02-23T21:29:41.392Z,-0.48
2019-02-23T21:32:12.263Z,-0.48
2019-02-23T21:34:42.225Z,-0.52
2019-02-23T21:37:10.183Z,-0.61
2019-02-23T21:39:38.060Z,-0.41
2019-02-23T21:42:05.957Z,-0.48
2019-02-23T21:44:33.894Z,-0.90
2019-02-23T21:47:01.659Z,-0.94
2019-02-23T21:49:29.529Z,-0.72
2019-02-23T21:51:57.435Z,-0.68
2019-02-23T21:54:25.122Z,-0.54
2019-02-23T21:56:52.979Z,-0.60
2019-02-23T21:59:20.850Z,-1.09
2019-02-23T22:01:48.733Z,-0.95
2019-02-23T22:04:16.373Z,-0.61
2019-02-23T22:06:44.104Z,-0.53
2019-02-23T22:09:11.761Z,-0.83
2019-02-23T22:11:39.398Z,-0.78
2019-02-23T22:14:07.012Z,-0.91
2019-02-23T22:16:34.789Z,-0.91
2019-02-23T22:19:03.157Z,-0.78
2019-02-23T22:21:31.068Z,-1.00
2019-02-23T22:23:58.810Z,-0.79
2019-02-23T22:26:26.394Z,-0.83
2019-02-23T22:28:54.055Z,-0.96
2019-02-23T22:31:22.038Z,-1.18
2019-02-23T22:33:49.747Z,-1.22
2019-02-23T22:36:17.807Z,-1.07
2019-02-23T22:38:45.346Z,-1.10
2019-02-23T22:41:14.378Z,-1.10
2019-02-23T22:43:41.988Z,-1.07
2019-02-23T22:46:09.403Z,-1.10
2019-02-23T22:48:36.820Z,-1.14
2019-02-23T22:51:04.262Z,-1.02
2019-02-23T22:53:31.696Z,-1.11
2019-02-23T22:55:59.076Z,-1.23
2019-02-23T22:58:26.551Z,-1.06
2019-02-23T23:01:05.203Z,-1.19
2019-02-23T23:03:32.570Z,-1.14
2019-02-23T23:05:59.937Z,-1.33
2019-02-23T23:08:27.336Z,-1.29
2019-02-23T23:10:54.754Z,-1.19
2019-02-23T23:13:22.105Z,-0.99
2019-02-23T23:15:49.455Z,-1.29
2019-02-23T23:18:16.872Z,-1.26
2019-02-23T23:20:44.270Z,-1.20
2019-02-23T23:23:11.617Z,-1.07
2019-02-23T23:25:39.104Z,-1.19
2019-02-23T23:28:06.453Z,-1.11
2019-02-23T23:30:33.838Z,-1.11
2019-02-23T23:33:01.337Z,-1.11
2019-02-23T23:35:29.092Z,-0.88
2019-02-23T23:37:56.738Z,-0.79
2019-02-23T23:40:24.446Z,-1.31
2019-02-23T23:42:57.989Z,-1.40
2019-02-23T23:45:21.076Z,-1.25
2019-02-23T23:47:48.477Z,-1.00
2019-02-23T23:50:15.815Z,-1.61
2019-02-23T23:52:43.251Z,-1.58
2019-02-23T23:55:11.642Z,-1.58
2019-02-23T23:57:39.128Z,-1.11
